METAR AND TAF INFORMATION
METAR FOR GMML
ADDS - METARS form results

(2123 UTC 25 September 2018)
Data provider http://aviationweather.gov/metar/data/
 
Forecast for: GMML (LAAYOUNE/HASSAN , MA)
Text: TAF GMML 251700Z 2518/2624 33015KT 9999 SCT027
Forecast period: 1800 UTC 25 September 2018 to 0000 UTC 27 September 2018
Forecast type: FROM: standard forecast or significant change
Winds: from the NNW (330 degrees) at 17 MPH (15 knots; 7.7 m/s)
Visibility: 6 or more miles 10+ km)
Ceiling: at least 12,000 feet AGL
Clouds: scattered clouds at 2700 feet AGL
Weather: no significant weather forecast for this period

 AIRPORT MAP

 RUNWAY INFORMATION
Runway 02 Runway length 8861 ft Runway width 148 ft
Runway elevation 223 ft Runway displaced threshold 0 ft Runway heading 16
Runway 20 Runway length 8861 ft Runway width 148 ft
Runway elevation 217 ft Runway displaced threshold 0 ft Runway heading 196
Runway 04 Runway length 8202 ft Runway width 148 ft
Runway elevation 202 ft Runway displaced threshold 0 ft Runway heading 32
Runway 22 Runway length 8202 ft Runway width 148 ft
Runway elevation 202 ft Runway displaced threshold 0 ft Runway heading 212

 AIRPORT FREQUENCIES
Type APP Name LAAYOUNE A Frequency 127.5 MHZ
Type TWR Name LAAYOUNE T Frequency 131.1 MHZ

 AIRPORT NEAR NAVIGATION AIDS
Type VOR-DME Name Laayoune Frequency 112100 KHZ



Air Greece virtual AIrline - All rights reserved 2018 - Powered by Virtual Airlines Manager [v2.6.2]